Waldo, Ohio
Current Conditions -  °F | °C
As of 7:53 PM on Friday 28 Nov 2014 (Local Time) from KMNN Reporting Station
Broken Clouds Broken Clouds  
Wind Chill: 21°   Ceiling: 11000
Heat Index: 30°   Visibility: 9mi
Dew Point: 20°   Wind: 12mph
Humidity: 66%   Direction: 170°S
Pressure: 30.14"   Gusts: NA
Location:  40.46°N, 83.08°W
Report Text: KMNN 290053Z AUTO 17010KT 9SM BKN110 M01/M07 A3014 RMK AO2 SLP222 T10111067 TSNO
Loading
Personal Weather Stations






























Interactive Weather Map New forecast layout! Learn more

10-Day Weather Forecast

Advertisements
Track Severe Weather on mobile